Zarajsk, Russia
Current Conditions -  °F | °C
As of 6:30 AM on Sunday 25 Jan 2015 (Local Time) from UUDD Reporting Station
Overcast Overcast  
Wind Chill: 10°   Ceiling: 4000
Heat Index: 21°   Visibility: 6mi
Dew Point: 16°   Wind: 11mph
Humidity: 80%   Direction: 160°SSE
Pressure: 30.39"   Gusts: NA
Location:  54.77°N, 38.88°E
Report Text: UUDD 250330Z 16005MPS 9999 OVC040 M06/M09 Q1029 6452019414550293 NOSIG
Loading
Personal Weather Stations






























Interactive Weather Map New forecast layout! Learn more

10-Day Weather Forecast

Advertisements
Track Severe Weather on mobile